sensor_id;sensor_type;location;lat;lon;timestamp;P1;durP1;ratioP1;P2;durP2;ratioP2
39176;SDS011;24904;52.208;21.192;2023-08-08T00:01:14;5.60;;;2.10;;
39176;SDS011;24904;52.208;21.192;2023-08-08T00:11:18;4.80;;;2.00;;
39176;SDS011;24904;52.208;21.192;2023-08-08T00:16:21;7.40;;;2.20;;
39176;SDS011;24904;52.208;21.192;2023-08-08T00:21:24;10.20;;;1.80;;
39176;SDS011;24904;52.208;21.192;2023-08-08T00:26:27;4.90;;;1.60;;
39176;SDS011;24904;52.208;21.192;2023-08-08T00:31:30;4.40;;;1.70;;
39176;SDS011;24904;52.208;21.192;2023-08-08T00:36:33;6.30;;;2.10;;
39176;SDS011;24904;52.208;21.192;2023-08-08T00:41:36;7.10;;;2.50;;
39176;SDS011;24904;52.208;21.192;2023-08-08T00:46:39;9.80;;;2.00;;
39176;SDS011;24904;52.208;21.192;2023-08-08T00:51:43;4.30;;;1.70;;
39176;SDS011;24904;52.208;21.192;2023-08-08T00:56:47;5.10;;;1.90;;
39176;SDS011;24904;52.208;21.192;2023-08-08T01:01:50;5.50;;;2.00;;
39176;SDS011;24904;52.208;21.192;2023-08-08T01:06:55;7.50;;;2.00;;
39176;SDS011;24904;52.208;21.192;2023-08-08T01:12:04;5.60;;;1.90;;
39176;SDS011;24904;52.208;21.192;2023-08-08T01:17:10;6.30;;;2.20;;
39176;SDS011;24904;52.208;21.192;2023-08-08T01:22:16;6.20;;;2.90;;
39176;SDS011;24904;52.208;21.192;2023-08-08T01:27:27;7.30;;;1.90;;
39176;SDS011;24904;52.208;21.192;2023-08-08T01:32:30;8.10;;;1.70;;
39176;SDS011;24904;52.208;21.192;2023-08-08T01:37:35;10.90;;;2.30;;
39176;SDS011;24904;52.208;21.192;2023-08-08T01:42:41;6.90;;;2.30;;
39176;SDS011;24904;52.208;21.192;2023-08-08T01:47:49;6.70;;;2.10;;
39176;SDS011;24904;52.208;21.192;2023-08-08T01:52:53;9.40;;;1.70;;
39176;SDS011;24904;52.208;21.192;2023-08-08T01:57:56;6.60;;;2.10;;
39176;SDS011;24904;52.208;21.192;2023-08-08T02:02:59;6.60;;;1.90;;
39176;SDS011;24904;52.208;21.192;2023-08-08T02:08:03;6.10;;;1.80;;
39176;SDS011;24904;52.208;21.192;2023-08-08T02:13:09;5.90;;;1.90;;
39176;SDS011;24904;52.208;21.192;2023-08-08T02:18:12;7.90;;;2.20;;
39176;SDS011;24904;52.208;21.192;2023-08-08T02:23:16;5.40;;;2.20;;
39176;SDS011;24904;52.208;21.192;2023-08-08T02:28:19;7.00;;;2.10;;
39176;SDS011;24904;52.208;21.192;2023-08-08T02:33:22;6.10;;;2.30;;
39176;SDS011;24904;52.208;21.192;2023-08-08T02:38:25;8.40;;;2.10;;
39176;SDS011;24904;52.208;21.192;2023-08-08T02:43:28;5.80;;;2.10;;
39176;SDS011;24904;52.208;21.192;2023-08-08T02:48:32;3.90;;;2.00;;
39176;SDS011;24904;52.208;21.192;2023-08-08T02:53:35;4.80;;;1.90;;
39176;SDS011;24904;52.208;21.192;2023-08-08T02:58:38;6.40;;;1.90;;
39176;SDS011;24904;52.208;21.192;2023-08-08T03:03:42;11.80;;;2.70;;
39176;SDS011;24904;52.208;21.192;2023-08-08T03:08:45;5.80;;;2.00;;
39176;SDS011;24904;52.208;21.192;2023-08-08T03:13:49;6.10;;;2.40;;
39176;SDS011;24904;52.208;21.192;2023-08-08T03:18:53;8.30;;;2.00;;
39176;SDS011;24904;52.208;21.192;2023-08-08T03:23:58;6.50;;;2.10;;
39176;SDS011;24904;52.208;21.192;2023-08-08T03:29:01;8.00;;;2.30;;
39176;SDS011;24904;52.208;21.192;2023-08-08T03:34:08;8.20;;;2.30;;
39176;SDS011;24904;52.208;21.192;2023-08-08T03:39:11;6.70;;;2.40;;
39176;SDS011;24904;52.208;21.192;2023-08-08T03:44:14;7.50;;;1.80;;
39176;SDS011;24904;52.208;21.192;2023-08-08T03:49:17;7.40;;;2.30;;
39176;SDS011;24904;52.208;21.192;2023-08-08T03:54:22;11.30;;;2.20;;
39176;SDS011;24904;52.208;21.192;2023-08-08T03:59:25;7.80;;;2.30;;
39176;SDS011;24904;52.208;21.192;2023-08-08T04:04:28;6.60;;;1.80;;
39176;SDS011;24904;52.208;21.192;2023-08-08T04:09:32;7.10;;;2.30;;
39176;SDS011;24904;52.208;21.192;2023-08-08T04:14:35;6.30;;;2.20;;
39176;SDS011;24904;52.208;21.192;2023-08-08T04:19:38;7.00;;;2.10;;
39176;SDS011;24904;52.208;21.192;2023-08-08T04:24:41;6.50;;;2.00;;
39176;SDS011;24904;52.208;21.192;2023-08-08T04:29:44;9.60;;;1.90;;
39176;SDS011;24904;52.208;21.192;2023-08-08T04:34:47;7.50;;;2.30;;
39176;SDS011;24904;52.208;21.192;2023-08-08T04:39:49;5.30;;;1.90;;
39176;SDS011;24904;52.208;21.192;2023-08-08T04:44:53;6.30;;;2.10;;
39176;SDS011;24904;52.208;21.192;2023-08-08T04:49:56;7.70;;;2.10;;
39176;SDS011;24904;52.208;21.192;2023-08-08T04:54:59;3.80;;;1.90;;
39176;SDS011;24904;52.208;21.192;2023-08-08T05:00:02;12.30;;;2.20;;
39176;SDS011;24904;52.208;21.192;2023-08-08T05:05:07;5.60;;;1.90;;
39176;SDS011;24904;52.208;21.192;2023-08-08T05:10:10;4.70;;;2.00;;
39176;SDS011;24904;52.208;21.192;2023-08-08T05:15:14;6.30;;;2.00;;
39176;SDS011;24904;52.208;21.192;2023-08-08T05:20:17;8.60;;;1.90;;
39176;SDS011;24904;52.208;21.192;2023-08-08T05:25:20;8.80;;;2.20;;
39176;SDS011;24904;52.208;21.192;2023-08-08T05:30:23;4.90;;;1.80;;
39176;SDS011;24904;52.208;21.192;2023-08-08T05:35:26;6.60;;;3.30;;
39176;SDS011;24904;52.208;21.192;2023-08-08T05:40:29;6.80;;;2.30;;
39176;SDS011;24904;52.208;21.192;2023-08-08T05:45:32;5.70;;;2.00;;
39176;SDS011;24904;52.208;21.192;2023-08-08T05:50:35;4.80;;;2.00;;
39176;SDS011;24904;52.208;21.192;2023-08-08T05:55:38;5.50;;;2.00;;
39176;SDS011;24904;52.208;21.192;2023-08-08T06:00:43;6.10;;;2.00;;
39176;SDS011;24904;52.208;21.192;2023-08-08T06:05:46;7.30;;;2.00;;
39176;SDS011;24904;52.208;21.192;2023-08-08T06:10:50;7.40;;;1.80;;
39176;SDS011;24904;52.208;21.192;2023-08-08T06:15:53;3.60;;;1.80;;
39176;SDS011;24904;52.208;21.192;2023-08-08T06:20:56;5.90;;;1.90;;
39176;SDS011;24904;52.208;21.192;2023-08-08T06:25:59;4.90;;;1.90;;
39176;SDS011;24904;52.208;21.192;2023-08-08T06:31:02;8.70;;;2.00;;
39176;SDS011;24904;52.208;21.192;2023-08-08T06:36:05;4.50;;;1.90;;
39176;SDS011;24904;52.208;21.192;2023-08-08T06:41:09;5.00;;;2.10;;
39176;SDS011;24904;52.208;21.192;2023-08-08T06:46:12;11.80;;;2.80;;
39176;SDS011;24904;52.208;21.192;2023-08-08T06:51:15;5.70;;;1.90;;
39176;SDS011;24904;52.208;21.192;2023-08-08T06:56:18;5.20;;;1.80;;
39176;SDS011;24904;52.208;21.192;2023-08-08T07:01:21;10.50;;;2.20;;
39176;SDS011;24904;52.208;21.192;2023-08-08T07:06:24;7.90;;;2.10;;
39176;SDS011;24904;52.208;21.192;2023-08-08T07:11:29;5.60;;;2.20;;
39176;SDS011;24904;52.208;21.192;2023-08-08T07:16:33;7.50;;;2.10;;
39176;SDS011;24904;52.208;21.192;2023-08-08T07:21:38;7.70;;;2.10;;
39176;SDS011;24904;52.208;21.192;2023-08-08T07:26:43;6.40;;;2.30;;
39176;SDS011;24904;52.208;21.192;2023-08-08T07:31:47;8.30;;;2.20;;
39176;SDS011;24904;52.208;21.192;2023-08-08T07:36:51;8.70;;;2.50;;
39176;SDS011;24904;52.208;21.192;2023-08-08T07:41:56;9.10;;;2.30;;
39176;SDS011;24904;52.208;21.192;2023-08-08T07:47:01;3.90;;;2.00;;
39176;SDS011;24904;52.208;21.192;2023-08-08T07:52:06;10.50;;;2.20;;
39176;SDS011;24904;52.208;21.192;2023-08-08T07:57:11;5.00;;;2.20;;
39176;SDS011;24904;52.208;21.192;2023-08-08T08:02:15;8.00;;;1.70;;
39176;SDS011;24904;52.208;21.192;2023-08-08T08:14:57;6.70;;;1.80;;
39176;SDS011;24904;52.208;21.192;2023-08-08T08:20:02;5.50;;;1.80;;
39176;SDS011;24904;52.208;21.192;2023-08-08T08:25:14;7.40;;;1.80;;
39176;SDS011;24904;52.208;21.192;2023-08-08T08:30:19;4.60;;;1.80;;
39176;SDS011;24904;52.208;21.192;2023-08-08T08:35:27;9.30;;;1.90;;
39176;SDS011;24904;52.208;21.192;2023-08-08T08:40:34;6.00;;;1.80;;
39176;SDS011;24904;52.208;21.192;2023-08-08T08:45:43;3.40;;;1.90;;
39176;SDS011;24904;52.208;21.192;2023-08-08T08:59:10;6.40;;;1.80;;
39176;SDS011;24904;52.208;21.192;2023-08-08T09:04:16;4.00;;;1.50;;
39176;SDS011;24904;52.208;21.192;2023-08-08T09:09:24;9.20;;;1.80;;
39176;SDS011;24904;52.208;21.192;2023-08-08T09:14:29;7.10;;;2.10;;
39176;SDS011;24904;52.208;21.192;2023-08-08T09:19:34;7.40;;;1.50;;
39176;SDS011;24904;52.208;21.192;2023-08-08T09:24:39;6.00;;;1.60;;
39176;SDS011;24904;52.208;21.192;2023-08-08T09:29:45;6.60;;;2.00;;
39176;SDS011;24904;52.208;21.192;2023-08-08T09:34:51;5.30;;;2.20;;
39176;SDS011;24904;52.208;21.192;2023-08-08T09:39:59;6.60;;;2.00;;
39176;SDS011;24904;52.208;21.192;2023-08-08T09:45:07;5.70;;;1.70;;
39176;SDS011;24904;52.208;21.192;2023-08-08T09:50:13;4.30;;;1.70;;
39176;SDS011;24904;52.208;21.192;2023-08-08T09:55:20;5.10;;;1.80;;
39176;SDS011;24904;52.208;21.192;2023-08-08T10:00:26;5.10;;;1.70;;
39176;SDS011;24904;52.208;21.192;2023-08-08T10:05:32;6.50;;;1.80;;
39176;SDS011;24904;52.208;21.192;2023-08-08T10:10:39;7.10;;;1.60;;
39176;SDS011;24904;52.208;21.192;2023-08-08T10:15:45;3.00;;;1.40;;
39176;SDS011;24904;52.208;21.192;2023-08-08T10:20:50;8.90;;;1.90;;
39176;SDS011;24904;52.208;21.192;2023-08-08T10:25:56;6.70;;;1.80;;
39176;SDS011;24904;52.208;21.192;2023-08-08T10:31:01;8.10;;;1.70;;
39176;SDS011;24904;52.208;21.192;2023-08-08T10:41:16;3.80;;;1.40;;
39176;SDS011;24904;52.208;21.192;2023-08-08T10:46:24;11.60;;;1.40;;
39176;SDS011;24904;52.208;21.192;2023-08-08T10:51:34;6.00;;;1.70;;
39176;SDS011;24904;52.208;21.192;2023-08-08T10:56:41;7.50;;;1.50;;
39176;SDS011;24904;52.208;21.192;2023-08-08T11:01:50;7.20;;;1.70;;
39176;SDS011;24904;52.208;21.192;2023-08-08T11:06:58;7.20;;;1.30;;
39176;SDS011;24904;52.208;21.192;2023-08-08T11:12:04;2.90;;;1.10;;
39176;SDS011;24904;52.208;21.192;2023-08-08T11:17:16;4.50;;;2.90;;
39176;SDS011;24904;52.208;21.192;2023-08-08T11:22:22;3.60;;;1.00;;
39176;SDS011;24904;52.208;21.192;2023-08-08T11:27:27;5.30;;;1.10;;
39176;SDS011;24904;52.208;21.192;2023-08-08T11:32:32;6.10;;;1.30;;
39176;SDS011;24904;52.208;21.192;2023-08-08T11:37:38;3.40;;;1.20;;
39176;SDS011;24904;52.208;21.192;2023-08-08T11:42:43;5.70;;;1.10;;
39176;SDS011;24904;52.208;21.192;2023-08-08T11:47:50;3.90;;;1.10;;
39176;SDS011;24904;52.208;21.192;2023-08-08T11:52:56;2.50;;;1.00;;
39176;SDS011;24904;52.208;21.192;2023-08-08T11:58:02;9.90;;;1.00;;
39176;SDS011;24904;52.208;21.192;2023-08-08T12:03:08;2.60;;;1.20;;
39176;SDS011;24904;52.208;21.192;2023-08-08T12:08:18;2.60;;;1.10;;
39176;SDS011;24904;52.208;21.192;2023-08-08T12:13:25;5.20;;;1.10;;
39176;SDS011;24904;52.208;21.192;2023-08-08T12:18:30;1.70;;;0.80;;
39176;SDS011;24904;52.208;21.192;2023-08-08T12:23:36;5.70;;;1.00;;
39176;SDS011;24904;52.208;21.192;2023-08-08T12:28:41;4.10;;;1.00;;
39176;SDS011;24904;52.208;21.192;2023-08-08T12:33:46;1.70;;;1.10;;
39176;SDS011;24904;52.208;21.192;2023-08-08T12:38:51;6.90;;;1.30;;
39176;SDS011;24904;52.208;21.192;2023-08-08T12:43:56;3.00;;;1.40;;
39176;SDS011;24904;52.208;21.192;2023-08-08T12:49:01;3.30;;;1.20;;
39176;SDS011;24904;52.208;21.192;2023-08-08T12:54:06;3.70;;;1.00;;
39176;SDS011;24904;52.208;21.192;2023-08-08T12:59:12;7.40;;;1.40;;
39176;SDS011;24904;52.208;21.192;2023-08-08T13:04:17;3.60;;;1.10;;
39176;SDS011;24904;52.208;21.192;2023-08-08T13:09:22;2.90;;;1.40;;
39176;SDS011;24904;52.208;21.192;2023-08-08T13:14:27;4.30;;;1.20;;
39176;SDS011;24904;52.208;21.192;2023-08-08T13:19:32;4.90;;;1.00;;
39176;SDS011;24904;52.208;21.192;2023-08-08T13:24:37;2.10;;;1.20;;
39176;SDS011;24904;52.208;21.192;2023-08-08T13:29:42;4.00;;;1.10;;
39176;SDS011;24904;52.208;21.192;2023-08-08T13:34:47;1.50;;;0.90;;
39176;SDS011;24904;52.208;21.192;2023-08-08T13:39:52;6.00;;;1.30;;
39176;SDS011;24904;52.208;21.192;2023-08-08T13:44:57;3.80;;;1.30;;
39176;SDS011;24904;52.208;21.192;2023-08-08T13:50:03;2.50;;;1.20;;
39176;SDS011;24904;52.208;21.192;2023-08-08T13:55:09;2.80;;;1.40;;
39176;SDS011;24904;52.208;21.192;2023-08-08T14:00:15;3.40;;;1.40;;
39176;SDS011;24904;52.208;21.192;2023-08-08T14:05:20;4.40;;;1.60;;
39176;SDS011;24904;52.208;21.192;2023-08-08T14:10:25;8.10;;;1.40;;
39176;SDS011;24904;52.208;21.192;2023-08-08T14:15:30;4.30;;;1.10;;
39176;SDS011;24904;52.208;21.192;2023-08-08T14:28:55;3.80;;;1.00;;
39176;SDS011;24904;52.208;21.192;2023-08-08T14:34:00;3.10;;;1.10;;
39176;SDS011;24904;52.208;21.192;2023-08-08T14:39:06;4.10;;;1.10;;
39176;SDS011;24904;52.208;21.192;2023-08-08T14:44:11;1.90;;;1.10;;
39176;SDS011;24904;52.208;21.192;2023-08-08T14:49:16;2.80;;;1.30;;
39176;SDS011;24904;52.208;21.192;2023-08-08T14:54:21;3.10;;;1.60;;
39176;SDS011;24904;52.208;21.192;2023-08-08T14:59:27;4.50;;;1.30;;
39176;SDS011;24904;52.208;21.192;2023-08-08T15:04:32;4.80;;;1.40;;
39176;SDS011;24904;52.208;21.192;2023-08-08T15:09:37;3.00;;;1.00;;
39176;SDS011;24904;52.208;21.192;2023-08-08T15:14:42;2.20;;;1.00;;
39176;SDS011;24904;52.208;21.192;2023-08-08T15:19:47;2.40;;;1.50;;
39176;SDS011;24904;52.208;21.192;2023-08-08T15:24:53;4.30;;;1.70;;
39176;SDS011;24904;52.208;21.192;2023-08-08T15:30:04;5.60;;;2.10;;
39176;SDS011;24904;52.208;21.192;2023-08-08T15:35:10;4.30;;;1.60;;
39176;SDS011;24904;52.208;21.192;2023-08-08T15:40:15;5.80;;;1.10;;
39176;SDS011;24904;52.208;21.192;2023-08-08T15:45:21;2.70;;;1.00;;
39176;SDS011;24904;52.208;21.192;2023-08-08T15:50:26;2.60;;;1.10;;
39176;SDS011;24904;52.208;21.192;2023-08-08T15:55:31;5.90;;;2.00;;
39176;SDS011;24904;52.208;21.192;2023-08-08T16:00:36;4.20;;;1.30;;
39176;SDS011;24904;52.208;21.192;2023-08-08T16:05:41;5.00;;;1.50;;
39176;SDS011;24904;52.208;21.192;2023-08-08T16:10:47;5.00;;;1.10;;
39176;SDS011;24904;52.208;21.192;2023-08-08T16:15:52;5.00;;;1.00;;
39176;SDS011;24904;52.208;21.192;2023-08-08T16:20:57;2.90;;;1.50;;
39176;SDS011;24904;52.208;21.192;2023-08-08T16:26:02;2.50;;;1.10;;
39176;SDS011;24904;52.208;21.192;2023-08-08T16:31:07;2.50;;;1.20;;
39176;SDS011;24904;52.208;21.192;2023-08-08T16:36:12;2.90;;;1.20;;
39176;SDS011;24904;52.208;21.192;2023-08-08T16:41:17;2.50;;;1.10;;
39176;SDS011;24904;52.208;21.192;2023-08-08T16:46:22;6.40;;;1.10;;
39176;SDS011;24904;52.208;21.192;2023-08-08T16:51:27;4.10;;;1.20;;
39176;SDS011;24904;52.208;21.192;2023-08-08T16:56:33;4.50;;;1.00;;
39176;SDS011;24904;52.208;21.192;2023-08-08T17:01:38;2.90;;;1.10;;
39176;SDS011;24904;52.208;21.192;2023-08-08T17:06:44;2.90;;;1.20;;
39176;SDS011;24904;52.208;21.192;2023-08-08T17:11:50;2.60;;;1.10;;
39176;SDS011;24904;52.208;21.192;2023-08-08T17:16:55;4.40;;;2.10;;
39176;SDS011;24904;52.208;21.192;2023-08-08T17:22:00;1.60;;;1.00;;
39176;SDS011;24904;52.208;21.192;2023-08-08T17:27:05;1.40;;;0.90;;
39176;SDS011;24904;52.208;21.192;2023-08-08T17:32:10;4.50;;;1.20;;
39176;SDS011;24904;52.208;21.192;2023-08-08T17:37:16;9.30;;;1.30;;
39176;SDS011;24904;52.208;21.192;2023-08-08T17:42:21;2.90;;;1.40;;
39176;SDS011;24904;52.208;21.192;2023-08-08T17:47:26;4.20;;;1.40;;
39176;SDS011;24904;52.208;21.192;2023-08-08T17:52:32;3.70;;;1.20;;
39176;SDS011;24904;52.208;21.192;2023-08-08T17:57:37;2.70;;;1.20;;
39176;SDS011;24904;52.208;21.192;2023-08-08T18:02:42;2.50;;;1.30;;
39176;SDS011;24904;52.208;21.192;2023-08-08T18:07:47;5.30;;;1.40;;
39176;SDS011;24904;52.208;21.192;2023-08-08T18:12:52;1.90;;;1.20;;
39176;SDS011;24904;52.208;21.192;2023-08-08T18:17:57;4.40;;;1.50;;
39176;SDS011;24904;52.208;21.192;2023-08-08T18:23:05;3.50;;;1.40;;
39176;SDS011;24904;52.208;21.192;2023-08-08T18:28:10;4.70;;;1.40;;
39176;SDS011;24904;52.208;21.192;2023-08-08T18:33:15;3.80;;;1.50;;
39176;SDS011;24904;52.208;21.192;2023-08-08T18:38:20;5.00;;;1.50;;
39176;SDS011;24904;52.208;21.192;2023-08-08T18:43:25;3.00;;;1.60;;
39176;SDS011;24904;52.208;21.192;2023-08-08T18:48:30;6.70;;;1.40;;
39176;SDS011;24904;52.208;21.192;2023-08-08T18:53:36;2.80;;;1.50;;
39176;SDS011;24904;52.208;21.192;2023-08-08T18:58:41;4.20;;;1.90;;
39176;SDS011;24904;52.208;21.192;2023-08-08T19:03:46;3.30;;;1.50;;
39176;SDS011;24904;52.208;21.192;2023-08-08T19:08:51;6.40;;;1.70;;
39176;SDS011;24904;52.208;21.192;2023-08-08T19:13:56;3.00;;;1.60;;
39176;SDS011;24904;52.208;21.192;2023-08-08T19:19:01;5.80;;;1.50;;
39176;SDS011;24904;52.208;21.192;2023-08-08T19:24:06;5.20;;;1.80;;
39176;SDS011;24904;52.208;21.192;2023-08-08T19:29:11;6.60;;;2.10;;
39176;SDS011;24904;52.208;21.192;2023-08-08T19:34:16;3.60;;;2.00;;
39176;SDS011;24904;52.208;21.192;2023-08-08T19:39:21;5.30;;;2.30;;
39176;SDS011;24904;52.208;21.192;2023-08-08T19:44:26;3.90;;;2.20;;
39176;SDS011;24904;52.208;21.192;2023-08-08T19:49:31;7.80;;;2.00;;
39176;SDS011;24904;52.208;21.192;2023-08-08T19:54:37;2.70;;;1.60;;
39176;SDS011;24904;52.208;21.192;2023-08-08T19:59:42;3.10;;;1.70;;
39176;SDS011;24904;52.208;21.192;2023-08-08T20:04:50;3.20;;;1.90;;
39176;SDS011;24904;52.208;21.192;2023-08-08T20:09:55;6.20;;;2.50;;
39176;SDS011;24904;52.208;21.192;2023-08-08T20:15:00;6.20;;;2.40;;
39176;SDS011;24904;52.208;21.192;2023-08-08T20:20:06;4.60;;;2.60;;
39176;SDS011;24904;52.208;21.192;2023-08-08T20:25:11;8.30;;;2.50;;
39176;SDS011;24904;52.208;21.192;2023-08-08T20:30:17;6.40;;;1.80;;
39176;SDS011;24904;52.208;21.192;2023-08-08T20:35:22;4.10;;;2.10;;
39176;SDS011;24904;52.208;21.192;2023-08-08T20:40:28;7.80;;;2.50;;
39176;SDS011;24904;52.208;21.192;2023-08-08T20:45:33;5.70;;;2.50;;
39176;SDS011;24904;52.208;21.192;2023-08-08T20:50:38;4.10;;;2.50;;
39176;SDS011;24904;52.208;21.192;2023-08-08T20:55:43;5.00;;;2.60;;
39176;SDS011;24904;52.208;21.192;2023-08-08T21:00:48;6.50;;;2.30;;
39176;SDS011;24904;52.208;21.192;2023-08-08T21:05:54;6.40;;;2.50;;
39176;SDS011;24904;52.208;21.192;2023-08-08T21:10:59;5.50;;;2.30;;
39176;SDS011;24904;52.208;21.192;2023-08-08T21:16:04;5.70;;;2.70;;
39176;SDS011;24904;52.208;21.192;2023-08-08T21:21:09;6.20;;;2.40;;
39176;SDS011;24904;52.208;21.192;2023-08-08T21:26:14;4.90;;;2.60;;
39176;SDS011;24904;52.208;21.192;2023-08-08T21:31:19;6.20;;;2.80;;
39176;SDS011;24904;52.208;21.192;2023-08-08T21:36:24;7.20;;;2.80;;
39176;SDS011;24904;52.208;21.192;2023-08-08T21:41:29;5.90;;;2.40;;
39176;SDS011;24904;52.208;21.192;2023-08-08T21:46:34;8.30;;;2.70;;
39176;SDS011;24904;52.208;21.192;2023-08-08T21:51:38;4.70;;;2.70;;
39176;SDS011;24904;52.208;21.192;2023-08-08T21:56:43;4.00;;;2.40;;
39176;SDS011;24904;52.208;21.192;2023-08-08T22:01:48;5.20;;;2.10;;
39176;SDS011;24904;52.208;21.192;2023-08-08T22:06:53;5.70;;;2.50;;
39176;SDS011;24904;52.208;21.192;2023-08-08T22:11:58;5.20;;;2.50;;
39176;SDS011;24904;52.208;21.192;2023-08-08T22:17:03;4.00;;;2.60;;
39176;SDS011;24904;52.208;21.192;2023-08-08T22:22:08;4.80;;;2.10;;
39176;SDS011;24904;52.208;21.192;2023-08-08T22:27:12;7.50;;;2.40;;
39176;SDS011;24904;52.208;21.192;2023-08-08T22:32:17;4.30;;;1.90;;
39176;SDS011;24904;52.208;21.192;2023-08-08T22:37:22;3.70;;;2.20;;
39176;SDS011;24904;52.208;21.192;2023-08-08T22:42:27;5.10;;;2.10;;
39176;SDS011;24904;52.208;21.192;2023-08-08T22:47:32;6.00;;;2.20;;
39176;SDS011;24904;52.208;21.192;2023-08-08T22:52:37;4.70;;;2.40;;
39176;SDS011;24904;52.208;21.192;2023-08-08T22:57:42;4.30;;;2.20;;
39176;SDS011;24904;52.208;21.192;2023-08-08T23:02:47;3.70;;;2.20;;
39176;SDS011;24904;52.208;21.192;2023-08-08T23:07:53;5.40;;;2.20;;
39176;SDS011;24904;52.208;21.192;2023-08-08T23:12:58;4.80;;;2.50;;
39176;SDS011;24904;52.208;21.192;2023-08-08T23:18:03;3.70;;;1.80;;
39176;SDS011;24904;52.208;21.192;2023-08-08T23:23:08;5.10;;;2.30;;
39176;SDS011;24904;52.208;21.192;2023-08-08T23:28:13;3.10;;;2.20;;
39176;SDS011;24904;52.208;21.192;2023-08-08T23:33:20;3.40;;;1.90;;
39176;SDS011;24904;52.208;21.192;2023-08-08T23:38:25;5.10;;;2.40;;
39176;SDS011;24904;52.208;21.192;2023-08-08T23:43:30;6.80;;;2.80;;
39176;SDS011;24904;52.208;21.192;2023-08-08T23:48:35;3.40;;;2.00;;
39176;SDS011;24904;52.208;21.192;2023-08-08T23:53:40;3.60;;;2.40;;
39176;SDS011;24904;52.208;21.192;2023-08-08T23:58:45;6.00;;;2.20;;
